Time;durP1;ratioP1;P1;durP2;ratioP2;P2;SDS_P1;SDS_P2;PMS_P1;PMS_P2;Temp;Humidity;BMP_temperature;BMP_pressure;BME280_temperature;BME280_humidity;BME280_pressure;Samples;Min_cycle;Max_cycle;Signal;HPM_P1;HPM_P2
2023/03/23 00:00:56;;;;;;;;;;;;;;;10.60;60.54;97411.00;5084999;28;19928;-56
2023/03/23 00:03:25;;;;;;;;;;;;;;;10.58;60.59;97401.56;5072327;28;20011;-55
2023/03/23 00:05:52;;;;;;;;;;;;;;;10.57;60.68;97408.13;5090131;28;19943;-56
2023/03/23 00:08:21;;;;;;;;;;;;;;;10.54;60.86;97406.06;5089009;28;19946;-55
2023/03/23 00:10:49;;;;;;;;;;;;;;;10.52;60.90;97405.59;5089849;28;19924;-55
2023/03/23 00:13:20;;;;;;;;;;;;;;;10.57;60.81;97394.56;5089106;28;20328;-55
2023/03/23 00:15:48;;;;;;;;;;;;;;;10.55;61.06;97405.75;5079587;28;19967;-55
2023/03/23 00:18:20;;;;;;;;;;;;;;;10.55;61.16;97399.53;5079640;28;19928;-55
2023/03/23 00:20:49;;;;;;;;;;;;;;;10.58;61.35;97398.84;5088954;28;19938;-55
2023/03/23 00:23:18;;;;;;;;;;;;;;;10.57;61.12;97405.41;5086914;28;19924;-62
2023/03/23 00:25:46;;;;;;;;;;;;;;;10.55;61.56;97394.09;5089127;28;19924;-56
2023/03/23 00:28:13;;;;;;;;;;;;;;;10.47;61.62;97391.06;5090259;28;19963;-55
2023/03/23 00:30:41;;;;;;;;;;;;;;;10.55;61.52;97388.66;5083746;28;19924;-55
2023/03/23 00:33:12;;;;;;;;;;;;;;;10.57;61.43;97386.41;5073762;28;19928;-55
2023/03/23 00:35:40;;;;;;;;;;;;;;;10.58;61.24;97383.34;5088490;28;19924;-54
2023/03/23 00:38:09;;;;;;;;;;;;;;;10.60;61.39;97383.03;5067736;28;19966;-55
2023/03/23 00:40:36;;;;;;;;;;;;;;;10.62;60.88;97378.09;5090070;28;19930;-55
2023/03/23 00:43:04;;;;;;;;;;;;;;;10.47;61.48;97368.53;5070359;28;20293;-55
2023/03/23 00:45:31;;;;;;;;;;;;;;;10.38;61.60;97357.69;5082636;28;19931;-55
2023/03/23 00:48:01;;;;;;;;;;;;;;;10.37;61.60;97360.72;5089142;28;19924;-55
2023/03/23 00:50:30;;;;;;;;;;;;;;;10.36;61.85;97365.38;5090484;28;19924;-55
2023/03/23 00:52:57;;;;;;;;;;;;;;;10.30;62.15;97353.09;5088915;28;19985;-55
2023/03/23 00:55:26;;;;;;;;;;;;;;;10.34;62.04;97359.47;5072986;28;19931;-58
2023/03/23 00:57:53;;;;;;;;;;;;;;;10.34;61.75;97354.03;5076167;28;19936;-58
2023/03/23 01:00:23;;;;;;;;;;;;;;;10.46;61.78;97372.38;5087007;28;20225;-55
2023/03/23 01:02:51;;;;;;;;;;;;;;;10.43;61.92;97379.22;5075029;28;19924;-56
2023/03/23 01:05:18;;;;;;;;;;;;;;;10.32;61.79;97372.56;5074839;28;19924;-55
2023/03/23 01:07:45;;;;;;;;;;;;;;;10.39;62.07;97372.88;5074977;28;19934;-55
2023/03/23 01:10:15;;;;;;;;;;;;;;;10.37;61.67;97366.16;5096144;28;19934;-56
2023/03/23 01:12:44;;;;;;;;;;;;;;;10.46;61.25;97367.75;5075028;28;19931;-56
2023/03/23 01:15:14;;;;;;;;;;;;;;;10.55;61.02;97364.22;5070407;28;19985;-55
2023/03/23 01:17:40;;;;;;;;;;;;;;;10.59;60.64;97365.94;5089222;28;19939;-55
2023/03/23 01:20:08;;;;;;;;;;;;;;;10.58;60.46;97363.56;5092708;28;19924;-55
2023/03/23 01:22:35;;;;;;;;;;;;;;;10.55;60.39;97359.56;5073923;28;19924;-55
2023/03/23 01:25:02;;;;;;;;;;;;;;;10.65;59.62;97363.84;5075245;28;19923;-55
2023/03/23 01:27:29;;;;;;;;;;;;;;;10.75;58.96;97355.34;5091848;28;19931;-55
2023/03/23 01:29:57;;;;;;;;;;;;;;;10.85;58.34;97352.25;5072813;28;19924;-57
2023/03/23 01:32:24;;;;;;;;;;;;;;;10.89;57.74;97342.34;5068885;28;19978;-55
2023/03/23 01:34:51;;;;;;;;;;;;;;;10.83;58.17;97338.22;5091314;28;20388;-56
2023/03/23 01:37:17;;;;;;;;;;;;;;;10.90;57.73;97332.25;5074039;28;20018;-56
2023/03/23 01:39:45;;;;;;;;;;;;;;;10.93;57.50;97343.28;5075023;28;20010;-56
2023/03/23 01:42:12;;;;;;;;;;;;;;;11.01;57.09;97345.13;5074427;28;19924;-55
2023/03/23 01:44:57;;;;;;;;;;;;;;;11.06;57.06;97346.09;5072146;28;19924;-57
2023/03/23 01:47:26;;;;;;;;;;;;;;;10.95;57.16;97342.94;5086727;28;20002;-59
2023/03/23 01:49:54;;;;;;;;;;;;;;;10.98;56.80;97342.31;5088526;28;19973;-58
2023/03/23 01:52:21;;;;;;;;;;;;;;;10.99;57.39;97338.47;5075871;28;19935;-55
2023/03/23 01:54:50;;;;;;;;;;;;;;;10.99;57.23;97331.09;5075320;28;20044;-56
2023/03/23 01:57:18;;;;;;;;;;;;;;;11.06;57.10;97329.78;5108803;28;20007;-55
2023/03/23 01:59:48;;;;;;;;;;;;;;;11.06;56.84;97340.66;5090866;28;19954;-55
2023/03/23 02:02:21;;;;;;;;;;;;;;;11.05;56.93;97334.41;5085569;28;20419;-56
2023/03/23 02:04:51;;;;;;;;;;;;;;;11.06;56.65;97335.22;5074316;28;19961;-56
2023/03/23 02:07:18;;;;;;;;;;;;;;;11.18;56.15;97327.94;5071918;28;19924;-55
2023/03/23 02:09:51;;;;;;;;;;;;;;;11.18;56.29;97330.66;5073748;28;19985;-56
2023/03/23 02:12:17;;;;;;;;;;;;;;;11.23;56.18;97330.47;5074535;28;20040;-64
2023/03/23 02:14:46;;;;;;;;;;;;;;;11.27;55.68;97317.00;5091746;28;19935;-55
2023/03/23 02:17:18;;;;;;;;;;;;;;;11.26;56.00;97310.78;5081018;28;19950;-55
2023/03/23 02:19:53;;;;;;;;;;;;;;;11.28;56.15;97310.44;5094042;28;19953;-55
2023/03/23 02:22:34;;;;;;;;;;;;;;;11.21;56.21;97307.47;5075599;28;19937;-56
2023/03/23 02:25:08;;;;;;;;;;;;;;;11.35;55.30;97304.50;5071929;28;19958;-56
2023/03/23 02:27:41;;;;;;;;;;;;;;;11.31;55.63;97301.63;5073951;28;19940;-61
2023/03/23 02:30:12;;;;;;;;;;;;;;;11.34;55.97;97303.69;5067111;28;19946;-56
2023/03/23 02:32:55;;;;;;;;;;;;;;;11.37;55.91;97294.88;5073761;28;19955;-56
2023/03/23 02:35:24;;;;;;;;;;;;;;;11.32;56.41;97295.06;5074809;28;19934;-55
2023/03/23 02:37:51;;;;;;;;;;;;;;;11.23;56.04;97286.16;5090925;28;19961;-55
2023/03/23 02:40:18;;;;;;;;;;;;;;;11.26;56.75;97285.53;5072981;28;19949;-55
2023/03/23 02:42:46;;;;;;;;;;;;;;;11.24;56.12;97288.56;5089562;28;19950;-56
2023/03/23 02:45:17;;;;;;;;;;;;;;;11.25;55.89;97286.66;5086994;28;19973;-55
2023/03/23 02:47:45;;;;;;;;;;;;;;;11.22;56.05;97285.38;5090872;28;19935;-56
2023/03/23 02:50:13;;;;;;;;;;;;;;;11.37;55.63;97284.00;5076100;28;19950;-56
2023/03/23 02:52:41;;;;;;;;;;;;;;;11.30;55.66;97283.75;5073877;28;19935;-56
2023/03/23 02:55:11;;;;;;;;;;;;;;;11.33;55.61;97280.34;5094336;28;19935;-61
2023/03/23 02:57:38;;;;;;;;;;;;;;;11.28;55.71;97288.69;5070277;28;20354;-55
2023/03/23 03:00:09;;;;;;;;;;;;;;;11.33;55.32;97284.97;5066181;28;19935;-56
2023/03/23 03:02:37;;;;;;;;;;;;;;;11.36;54.82;97284.34;5088002;28;19962;-55
2023/03/23 03:05:06;;;;;;;;;;;;;;;11.34;55.63;97287.38;5085506;28;19966;-55
2023/03/23 03:07:52;;;;;;;;;;;;;;;11.33;55.55;97280.34;5074846;28;20004;-56
2023/03/23 03:10:21;;;;;;;;;;;;;;;11.43;54.86;97284.59;5075208;28;19945;-55
2023/03/23 03:12:49;;;;;;;;;;;;;;;11.37;55.49;97286.72;5087561;28;19939;-61
2023/03/23 03:15:19;;;;;;;;;;;;;;;11.37;55.00;97275.84;5083946;28;20479;-57
2023/03/23 03:17:47;;;;;;;;;;;;;;;11.42;54.62;97286.50;5065589;28;20379;-55
2023/03/23 03:20:14;;;;;;;;;;;;;;;11.39;54.50;97278.22;5091108;28;20311;-55
2023/03/23 03:22:42;;;;;;;;;;;;;;;11.53;54.19;97270.59;5072905;28;19945;-60
2023/03/23 03:25:13;;;;;;;;;;;;;;;11.52;54.23;97269.78;5091148;28;19931;-55
2023/03/23 03:27:40;;;;;;;;;;;;;;;11.50;54.80;97265.81;5072590;28;19924;-56
2023/03/23 03:30:16;;;;;;;;;;;;;;;11.51;54.54;97265.50;5067994;28;19928;-55
2023/03/23 03:32:46;;;;;;;;;;;;;;;11.51;54.32;97265.50;5068014;28;20092;-55
2023/03/23 03:35:14;;;;;;;;;;;;;;;11.52;54.41;97274.44;5090429;28;20089;-55
2023/03/23 03:37:43;;;;;;;;;;;;;;;11.52;54.63;97261.63;5089196;28;19924;-55
2023/03/23 03:40:11;;;;;;;;;;;;;;;11.45;54.69;97266.81;5073144;28;19930;-56
2023/03/23 03:42:42;;;;;;;;;;;;;;;11.47;54.63;97264.56;5080228;28;19932;-55
2023/03/23 03:45:10;;;;;;;;;;;;;;;11.45;54.83;97263.28;5064973;28;20335;-56
2023/03/23 03:47:37;;;;;;;;;;;;;;;11.36;55.27;97260.66;5088000;28;20672;-55
2023/03/23 03:50:04;;;;;;;;;;;;;;;11.32;55.30;97259.72;5073400;28;19924;-56
2023/03/23 03:52:31;;;;;;;;;;;;;;;11.33;55.42;97271.38;5066132;28;20389;-56
2023/03/23 03:54:59;;;;;;;;;;;;;;;11.25;55.52;97257.53;5089755;28;19932;-55
2023/03/23 03:57:27;;;;;;;;;;;;;;;11.25;55.70;97257.53;5089388;28;19924;-55
2023/03/23 04:00:13;;;;;;;;;;;;;;;11.21;55.86;97253.09;5090419;28;20405;-60
2023/03/23 04:02:47;;;;;;;;;;;;;;;11.27;55.84;97262.63;5071740;28;19932;-55
2023/03/23 04:05:16;;;;;;;;;;;;;;;11.25;56.06;97260.25;5089203;28;19977;-56
2023/03/23 04:07:49;;;;;;;;;;;;;;;11.28;55.99;97261.50;5072542;28;19928;-55
2023/03/23 04:10:16;;;;;;;;;;;;;;;11.34;55.61;97254.72;5075539;28;19931;-55
2023/03/23 04:12:45;;;;;;;;;;;;;;;11.30;55.69;97259.25;5071777;28;19935;-55
2023/03/23 04:15:13;;;;;;;;;;;;;;;11.37;55.34;97264.16;5078903;28;20018;-56
2023/03/23 04:17:45;;;;;;;;;;;;;;;11.36;55.30;97268.81;5070900;28;19985;-55
2023/03/23 04:20:17;;;;;;;;;;;;;;;11.37;55.44;97254.06;5088725;28;19970;-55
2023/03/23 04:22:49;;;;;;;;;;;;;;;11.38;55.30;97255.66;5068803;28;19924;-55
2023/03/23 04:25:17;;;;;;;;;;;;;;;11.40;55.46;97258.88;5089790;28;19963;-55
2023/03/23 04:27:45;;;;;;;;;;;;;;;11.40;55.65;97258.88;5071587;28;19947;-55
2023/03/23 04:30:15;;;;;;;;;;;;;;;11.46;55.76;97260.25;5066135;28;19932;-55
2023/03/23 04:32:50;;;;;;;;;;;;;;;11.48;55.79;97266.16;5068776;28;19931;-55
2023/03/23 04:35:22;;;;;;;;;;;;;;;11.58;54.90;97264.16;5094883;28;19963;-55
2023/03/23 04:37:57;;;;;;;;;;;;;;;11.54;55.52;97253.13;5077165;28;19924;-55
2023/03/23 04:40:25;;;;;;;;;;;;;;;11.50;55.78;97263.09;5076714;28;20022;-54
2023/03/23 04:43:05;;;;;;;;;;;;;;;11.49;55.77;97259.56;5076321;28;19931;-55
2023/03/23 04:45:45;;;;;;;;;;;;;;;11.49;56.09;97258.78;5085764;28;19924;-55
2023/03/23 04:48:14;;;;;;;;;;;;;;;11.48;56.08;97260.72;5091139;28;19993;-55
2023/03/23 04:50:53;;;;;;;;;;;;;;;11.48;56.45;97257.19;5087761;28;19928;-56
2023/03/23 04:53:25;;;;;;;;;;;;;;;11.47;55.98;97261.84;5074242;28;19958;-56
2023/03/23 04:55:52;;;;;;;;;;;;;;;11.48;56.28;97265.34;5075510;28;19939;-56
2023/03/23 04:58:20;;;;;;;;;;;;;;;11.52;56.43;97266.28;5075894;28;19924;-55
2023/03/23 05:01:21;;;;;;;;;;;;;;;11.51;56.62;97262.78;5071190;28;19928;-55
2023/03/23 05:04:00;;;;;;;;;;;;;;;11.50;56.41;97255.75;5077708;28;19971;-54
2023/03/23 05:06:28;;;;;;;;;;;;;;;11.57;56.38;97257.91;5112676;27;19924;-55
2023/03/23 05:09:01;;;;;;;;;;;;;;;11.52;56.33;97261.63;5078916;28;19932;-56
2023/03/23 05:11:29;;;;;;;;;;;;;;;11.53;56.65;97262.44;5090765;28;20039;-55
2023/03/23 05:13:56;;;;;;;;;;;;;;;11.52;55.94;97261.63;5068114;28;19939;-56
2023/03/23 05:16:28;;;;;;;;;;;;;;;11.54;56.44;97251.22;5077517;28;19928;-56
2023/03/23 05:18:57;;;;;;;;;;;;;;;11.51;56.35;97262.78;5092133;28;19967;-56
2023/03/23 05:21:24;;;;;;;;;;;;;;;11.59;56.49;97252.94;5072792;28;19932;-59
2023/03/23 05:23:54;;;;;;;;;;;;;;;11.54;56.68;97253.94;5099238;27;19925;-54
2023/03/23 05:26:23;;;;;;;;;;;;;;;11.61;56.28;97252.59;5070236;28;19977;-56
2023/03/23 05:28:53;;;;;;;;;;;;;;;11.60;56.47;97257.25;5089956;28;19932;-56
2023/03/23 05:31:25;;;;;;;;;;;;;;;11.77;55.48;97245.41;5087516;28;19924;-59
2023/03/23 05:33:53;;;;;;;;;;;;;;;11.64;56.46;97246.50;5073451;28;19931;-57
2023/03/23 05:36:26;;;;;;;;;;;;;;;11.68;56.10;97250.94;5073942;28;19938;-59
2023/03/23 05:39:09;;;;;;;;;;;;;;;11.87;55.75;97250.44;5075405;28;19992;-57
2023/03/23 05:41:55;;;;;;;;;;;;;;;11.84;55.76;97253.84;5096125;28;19930;-56
2023/03/23 05:44:24;;;;;;;;;;;;;;;11.91;54.82;97251.38;5072488;28;19931;-57
2023/03/23 05:46:54;;;;;;;;;;;;;;;11.95;54.96;97252.31;5085507;28;19932;-58
2023/03/23 05:49:24;;;;;;;;;;;;;;;11.97;55.29;97254.69;5073750;28;20479;-57
2023/03/23 05:51:51;;;;;;;;;;;;;;;12.10;54.65;97252.81;5073954;28;19945;-57
2023/03/23 05:54:18;;;;;;;;;;;;;;;11.94;55.11;97236.31;5071312;28;20393;-57
2023/03/23 05:56:49;;;;;;;;;;;;;;;12.03;55.15;97237.00;5074593;28;19924;-57
2023/03/23 05:59:23;;;;;;;;;;;;;;;12.10;54.98;97239.19;5073329;28;20376;-56
2023/03/23 06:01:54;;;;;;;;;;;;;;;11.99;54.79;97247.78;5068548;28;19924;-57
2023/03/23 06:04:24;;;;;;;;;;;;;;;12.07;55.13;97254.25;5077029;28;19924;-59
2023/03/23 06:07:04;;;;;;;;;;;;;;;12.18;54.77;97255.41;5080618;28;20357;-57
2023/03/23 06:09:31;;;;;;;;;;;;;;;12.19;54.63;97251.56;5087178;28;19955;-56
2023/03/23 06:12:04;;;;;;;;;;;;;;;12.22;54.78;97256.34;5089773;28;19924;-57
2023/03/23 06:14:51;;;;;;;;;;;;;;;12.27;54.67;97255.31;5057051;28;19985;-56
2023/03/23 06:17:24;;;;;;;;;;;;;;;12.41;55.31;97250.38;5067832;28;19956;-56
2023/03/23 06:19:55;;;;;;;;;;;;;;;12.57;55.55;97253.22;5072547;28;19935;-56
2023/03/23 06:22:22;;;;;;;;;;;;;;;12.54;56.12;97249.22;5089346;28;19939;-56
2023/03/23 06:24:49;;;;;;;;;;;;;;;12.58;55.46;97257.53;5078584;28;19928;-57
2023/03/23 06:27:22;;;;;;;;;;;;;;;12.65;55.47;97257.75;5075460;28;19924;-56
2023/03/23 06:29:49;;;;;;;;;;;;;;;12.60;54.93;97260.69;5075367;28;19928;-56
2023/03/23 06:32:16;;;;;;;;;;;;;;;12.61;54.45;97264.22;5076947;28;20392;-57
2023/03/23 06:34:44;;;;;;;;;;;;;;;12.73;55.47;97256.03;5066534;28;19927;-56
2023/03/23 06:37:30;;;;;;;;;;;;;;;12.66;53.85;97259.31;5081874;28;20507;-56
2023/03/23 06:40:29;;;;;;;;;;;;;;;12.71;54.22;97264.56;5074492;28;19928;-56
2023/03/23 06:42:58;;;;;;;;;;;;;;;12.75;53.96;97261.94;5067149;28;19924;-56
2023/03/23 06:45:29;;;;;;;;;;;;;;;12.79;53.62;97271.03;5086830;28;20369;-56
2023/03/23 06:48:15;;;;;;;;;;;;;;;12.72;54.28;97273.53;5088265;28;20014;-57
2023/03/23 06:50:44;;;;;;;;;;;;;;;12.75;53.94;97268.19;5108166;28;20272;-57
2023/03/23 06:53:13;;;;;;;;;;;;;;;12.83;53.92;97269.19;5090785;28;19971;-57
2023/03/23 06:55:40;;;;;;;;;;;;;;;12.84;53.49;97270.81;5073553;28;19924;-57
2023/03/23 06:58:07;;;;;;;;;;;;;;;12.89;52.99;97281.50;5085741;28;19937;-57
2023/03/23 07:00:34;;;;;;;;;;;;;;;13.04;52.24;97274.53;5061959;28;20963;-58
2023/03/23 07:03:02;;;;;;;;;;;;;;;13.09;53.26;97266.91;5065301;28;19928;-57
2023/03/23 07:05:30;;;;;;;;;;;;;;;13.33;53.36;97277.03;5065317;28;19928;-57
2023/03/23 07:07:57;;;;;;;;;;;;;;;13.34;53.18;97272.34;5060741;28;19974;-56
2023/03/23 07:10:49;;;;;;;;;;;;;;;13.50;51.94;97275.94;5089258;28;20020;-59
2023/03/23 07:13:17;;;;;;;;;;;;;;;13.68;50.87;97275.66;5068245;28;20423;-57
2023/03/23 07:15:50;;;;;;;;;;;;;;;13.75;51.94;97278.63;5082415;28;19981;-57
2023/03/23 07:18:19;;;;;;;;;;;;;;;13.97;51.33;97277.28;5100743;28;20029;-57
2023/03/23 07:20:50;;;;;;;;;;;;;;;13.91;51.39;97281.41;5080203;28;19935;-57
2023/03/23 07:23:18;;;;;;;;;;;;;;;13.92;50.96;97283.78;5066652;28;19934;-57
2023/03/23 07:25:53;;;;;;;;;;;;;;;13.96;50.11;97289.34;5086089;28;19951;-57
2023/03/23 07:28:24;;;;;;;;;;;;;;;14.07;50.33;97299.41;5088974;28;19939;-56
2023/03/23 07:30:54;;;;;;;;;;;;;;;13.98;49.79;97296.03;5063909;28;20427;-60
2023/03/23 07:33:21;;;;;;;;;;;;;;;13.85;51.16;97298.03;5073774;28;19955;-56
2023/03/23 07:35:49;;;;;;;;;;;;;;;13.87;52.33;97300.41;5088863;28;20008;-57
2023/03/23 07:38:19;;;;;;;;;;;;;;;13.81;51.30;97301.78;5088488;28;19950;-57
2023/03/23 07:40:49;;;;;;;;;;;;;;;13.88;50.47;97301.97;5077565;28;19965;-56
2023/03/23 07:43:21;;;;;;;;;;;;;;;13.87;50.13;97303.13;5067341;28;21391;-56
2023/03/23 07:46:06;;;;;;;;;;;;;;;13.76;50.75;97305.56;5097311;28;19974;-57
2023/03/23 07:48:53;;;;;;;;;;;;;;;13.79;51.40;97304.84;5066927;28;19945;-57
2023/03/23 07:51:23;;;;;;;;;;;;;;;13.93;51.36;97306.41;5087463;28;19942;-57
2023/03/23 07:53:51;;;;;;;;;;;;;;;13.91;51.14;97314.94;5087100;28;20338;-58
2023/03/23 07:56:36;;;;;;;;;;;;;;;14.08;51.93;97314.66;5089232;28;20011;-57
2023/03/23 07:59:11;;;;;;;;;;;;;;;14.16;52.35;97310.94;5071769;28;19939;-61
2023/03/23 08:01:39;;;;;;;;;;;;;;;14.16;53.53;97310.16;5079134;28;20058;-57
2023/03/23 08:04:37;;;;;;;;;;;;;;;14.13;53.25;97308.16;5037200;28;19939;-58
2023/03/23 08:07:12;;;;;;;;;;;;;;;14.26;54.49;97309.66;5086972;28;19957;-57
2023/03/23 08:09:52;;;;;;;;;;;;;;;14.25;55.09;97316.25;5068341;28;20334;-57
2023/03/23 08:12:34;;;;;;;;;;;;;;;14.25;55.94;97319.00;5092301;28;19988;-58
2023/03/23 08:15:22;;;;;;;;;;;;;;;14.18;55.34;97326.22;5077031;28;19935;-57
2023/03/23 08:18:08;;;;;;;;;;;;;;;14.07;55.34;97331.38;5091629;28;20413;-57
2023/03/23 08:21:01;;;;;;;;;;;;;;;14.09;53.46;97334.56;5083138;28;19938;-57
2023/03/23 08:23:49;;;;;;;;;;;;;;;13.91;54.30;97334.06;5081869;28;19957;-57
2023/03/23 08:26:28;;;;;;;;;;;;;;;13.88;54.78;97335.53;5084063;28;20001;-59
2023/03/23 08:29:16;;;;;;;;;;;;;;;13.73;55.46;97339.00;5088214;28;20349;-57
2023/03/23 08:31:44;;;;;;;;;;;;;;;13.75;55.69;97334.00;5084437;28;19959;-57
2023/03/23 08:34:32;;;;;;;;;;;;;;;13.64;55.23;97338.34;5092206;28;19934;-57
2023/03/23 08:37:25;;;;;;;;;;;;;;;13.65;56.08;97339.94;5081852;28;19954;-58
2023/03/23 08:40:16;;;;;;;;;;;;;;;13.67;56.06;97347.78;5087431;28;20283;-58
2023/03/23 08:43:04;;;;;;;;;;;;;;;13.71;57.70;97340.50;5081979;28;20016;-58
2023/03/23 08:45:52;;;;;;;;;;;;;;;13.68;56.26;97343.91;5085127;28;19962;-57
2023/03/23 08:48:43;;;;;;;;;;;;;;;13.77;57.31;97347.31;5086189;28;19942;-57
2023/03/23 08:51:43;;;;;;;;;;;;;;;13.78;56.87;97351.63;5055466;28;20383;-57
2023/03/23 08:54:16;;;;;;;;;;;;;;;13.82;57.88;97352.53;5091049;28;20397;-56
2023/03/23 08:57:00;;;;;;;;;;;;;;;13.86;57.22;97345.22;5087748;28;20366;-57
2023/03/23 08:59:37;;;;;;;;;;;;;;;13.87;58.04;97349.53;5087280;28;19938;-57
2023/03/23 09:02:14;;;;;;;;;;;;;;;13.96;59.17;97358.41;5077317;28;19958;-59
2023/03/23 09:04:58;;;;;;;;;;;;;;;14.01;57.38;97357.34;5087484;28;19964;-57
2023/03/23 09:07:44;;;;;;;;;;;;;;;14.08;59.56;97363.81;5072490;28;20383;-57
2023/03/23 09:10:11;;;;;;;;;;;;;;;14.12;58.72;97369.38;5068288;28;19941;-57
2023/03/23 09:12:37;;;;;;;;;;;;;;;14.14;58.89;97364.34;5092036;28;19934;-57
2023/03/23 09:15:08;;;;;;;;;;;;;;;14.05;56.53;97355.50;5071191;28;19970;-61
2023/03/23 09:17:35;;;;;;;;;;;;;;;14.28;57.73;97358.50;5083571;28;19950;-57
2023/03/23 09:20:07;;;;;;;;;;;;;;;14.19;56.61;97364.09;5077470;28;19939;-58
2023/03/23 09:22:34;;;;;;;;;;;;;;;14.31;55.01;97366.00;5070215;28;19935;-58
2023/03/23 09:25:01;;;;;;;;;;;;;;;14.22;56.33;97373.53;5088473;28;20392;-57
2023/03/23 09:27:28;;;;;;;;;;;;;;;14.33;55.12;97369.19;5081195;28;19959;-57
2023/03/23 09:29:55;;;;;;;;;;;;;;;14.43;54.59;97374.13;5095621;28;19940;-57
2023/03/23 09:32:22;;;;;;;;;;;;;;;14.47;54.46;97361.38;5065216;28;19957;-57
2023/03/23 09:34:51;;;;;;;;;;;;;;;14.53;54.36;97365.44;5077418;28;19935;-57
2023/03/23 09:37:20;;;;;;;;;;;;;;;14.61;53.75;97375.44;5086456;28;19955;-58
2023/03/23 09:39:47;;;;;;;;;;;;;;;14.77;52.69;97377.41;5069851;28;20482;-57
2023/03/23 09:42:17;;;;;;;;;;;;;;;14.72;53.72;97380.38;5095256;28;19974;-57
2023/03/23 09:44:49;;;;;;;;;;;;;;;14.79;52.99;97383.31;5067849;28;20384;-57
2023/03/23 09:47:18;;;;;;;;;;;;;;;14.85;52.60;97377.22;5080062;28;19955;-57
2023/03/23 09:49:46;;;;;;;;;;;;;;;14.98;53.48;97379.88;5070404;28;19951;-57
2023/03/23 09:52:14;;;;;;;;;;;;;;;15.04;52.52;97371.06;5080086;28;19935;-57
2023/03/23 09:54:43;;;;;;;;;;;;;;;15.14;51.77;97380.69;5083090;28;20399;-57
2023/03/23 09:57:12;;;;;;;;;;;;;;;15.25;51.99;97380.94;5090094;28;19960;-57
2023/03/23 09:59:40;;;;;;;;;;;;;;;15.35;50.31;97378.44;5087436;28;20032;-60
2023/03/23 10:02:11;;;;;;;;;;;;;;;15.41;50.41;97387.97;5081905;28;19950;-57
2023/03/23 10:04:40;;;;;;;;;;;;;;;15.29;51.10;97390.03;5086769;28;19935;-56
2023/03/23 10:07:10;;;;;;;;;;;;;;;15.45;51.29;97399.00;5085879;28;19955;-57
2023/03/23 10:09:37;;;;;;;;;;;;;;;15.43;50.03;97391.13;5092165;28;19992;-57
2023/03/23 10:12:07;;;;;;;;;;;;;;;15.37;50.64;97391.78;5091444;28;19935;-58
2023/03/23 10:14:49;;;;;;;;;;;;;;;15.45;50.38;97399.00;5069776;28;19993;-57
2023/03/23 10:17:17;;;;;;;;;;;;;;;15.50;50.38;97406.13;5074261;28;19984;-57
2023/03/23 10:19:47;;;;;;;;;;;;;;;15.51;49.72;97403.06;5100639;28;19938;-58
2023/03/23 10:22:15;;;;;;;;;;;;;;;15.44;50.49;97408.34;5088330;28;19941;-57
2023/03/23 10:24:43;;;;;;;;;;;;;;;15.39;49.89;97411.34;5074092;28;20025;-58
2023/03/23 10:27:17;;;;;;;;;;;;;;;15.31;50.23;97417.81;5084810;28;20058;-60
2023/03/23 10:29:46;;;;;;;;;;;;;;;15.23;50.42;97413.31;5084366;28;19935;-58
2023/03/23 10:32:14;;;;;;;;;;;;;;;15.19;51.00;97407.78;5078881;28;20057;-57
2023/03/23 10:34:43;;;;;;;;;;;;;;;15.17;50.38;97412.78;5088772;28;20056;-57
2023/03/23 10:37:12;;;;;;;;;;;;;;;15.11;51.79;97420.47;5090139;28;20571;-58
2023/03/23 10:39:41;;;;;;;;;;;;;;;14.97;52.12;97425.59;5091346;28;20033;-57
2023/03/23 10:42:09;;;;;;;;;;;;;;;15.02;51.44;97424.50;5092315;28;20013;-57
2023/03/23 10:44:37;;;;;;;;;;;;;;;15.02;51.94;97429.97;5090946;28;20025;-57
2023/03/23 10:47:05;;;;;;;;;;;;;;;15.02;52.38;97436.28;5080934;28;20467;-59
2023/03/23 10:49:34;;;;;;;;;;;;;;;15.02;52.49;97427.25;5089958;28;19924;-62
2023/03/23 10:52:06;;;;;;;;;;;;;;;14.98;52.82;97434.59;5087039;28;20381;-57
2023/03/23 10:54:34;;;;;;;;;;;;;;;14.99;52.18;97431.50;5104140;28;20383;-57
2023/03/23 10:57:01;;;;;;;;;;;;;;;14.98;52.89;97435.38;5087291;28;20335;-57
2023/03/23 10:59:28;;;;;;;;;;;;;;;14.84;53.27;97435.00;5092944;28;19977;-58
2023/03/23 11:01:58;;;;;;;;;;;;;;;14.76;53.26;97433.25;5089547;28;19974;-57
2023/03/23 11:04:25;;;;;;;;;;;;;;;14.73;53.62;97434.72;5087926;28;19928;-62
2023/03/23 11:06:53;;;;;;;;;;;;;;;14.68;54.14;97437.69;5088485;28;20431;-57
2023/03/23 11:09:21;;;;;;;;;;;;;;;14.63;54.33;97436.00;5087262;28;20339;-57
2023/03/23 11:11:49;;;;;;;;;;;;;;;14.64;54.75;97439.53;5072984;28;20292;-58
2023/03/23 11:14:17;;;;;;;;;;;;;;;14.58;55.17;97444.47;5089026;28;19924;-58
2023/03/23 11:16:45;;;;;;;;;;;;;;;14.49;55.45;97441.09;5083900;28;20214;-58
2023/03/23 11:19:14;;;;;;;;;;;;;;;14.50;55.30;97453.63;5082381;28;19931;-57
2023/03/23 11:21:41;;;;;;;;;;;;;;;14.48;55.53;97450.44;5091492;28;19954;-57
2023/03/23 11:24:08;;;;;;;;;;;;;;;14.43;55.71;97450.63;5068073;28;19946;-57
2023/03/23 11:26:37;;;;;;;;;;;;;;;14.38;56.11;97445.41;5086126;28;19924;-57
2023/03/23 11:29:05;;;;;;;;;;;;;;;14.42;56.15;97446.31;5091844;28;19931;-60
2023/03/23 11:31:33;;;;;;;;;;;;;;;14.47;56.26;97448.03;5072704;28;19955;-58
2023/03/23 11:34:01;;;;;;;;;;;;;;;14.50;56.22;97452.84;5086740;28;19942;-57
2023/03/23 11:36:36;;;;;;;;;;;;;;;14.56;55.94;97454.97;5065245;28;20890;-62
2023/03/23 11:39:05;;;;;;;;;;;;;;;14.54;55.67;97449.06;5087988;28;19939;-56
2023/03/23 11:41:33;;;;;;;;;;;;;;;14.56;56.03;97462.38;5100915;28;20433;-57
2023/03/23 11:44:03;;;;;;;;;;;;;;;14.62;56.05;97453.56;5092958;28;19946;-57
2023/03/23 11:46:32;;;;;;;;;;;;;;;14.60;56.14;97449.59;5082538;28;19932;-57
2023/03/23 11:49:00;;;;;;;;;;;;;;;14.76;55.93;97453.16;5091962;28;19924;-57
2023/03/23 11:51:31;;;;;;;;;;;;;;;14.74;55.65;97455.44;5068689;28;19924;-57
2023/03/23 11:54:00;;;;;;;;;;;;;;;14.80;55.80;97447.78;5090508;28;19931;-57
2023/03/23 11:56:29;;;;;;;;;;;;;;;14.76;55.83;97447.69;5088485;28;19928;-57
2023/03/23 11:58:57;;;;;;;;;;;;;;;14.65;56.32;97460.28;5069194;28;19954;-58
2023/03/23 12:01:37;;;;;;;;;;;;;;;14.53;56.66;97450.19;5084843;28;19958;-56
2023/03/23 12:04:11;;;;;;;;;;;;;;;14.62;57.28;97461.78;5060419;28;20303;-59
2023/03/23 12:06:40;;;;;;;;;;;;;;;14.66;56.85;97462.66;5072200;28;19954;-57
2023/03/23 12:09:16;;;;;;;;;;;;;;;14.72;56.83;97448.75;5083656;28;19973;-57
2023/03/23 12:11:46;;;;;;;;;;;;;;;14.73;56.45;97453.06;5087824;28;19938;-57
2023/03/23 12:14:16;;;;;;;;;;;;;;;14.75;56.63;97448.03;5088354;28;19978;-56
2023/03/23 12:16:50;;;;;;;;;;;;;;;14.68;56.87;97449.44;5081363;28;20035;-56
2023/03/23 12:19:20;;;;;;;;;;;;;;;14.78;56.59;97442.66;5067948;28;19957;-58
2023/03/23 12:22:13;;;;;;;;;;;;;;;14.88;56.29;97438.63;5092745;28;19943;-57
2023/03/23 12:24:53;;;;;;;;;;;;;;;15.09;56.17;97438.41;5085094;28;19934;-58
2023/03/23 12:28:17;;;;;;;;;;;;;;;;;;;;;
2023/03/23 12:31:27;;;;;;;;;;;;;;;15.27;55.32;97434.16;5031919;28;20379;-57
2023/03/23 12:33:56;;;;;;;;;;;;;;;15.36;55.12;97426.56;5048564;28;20753;-58
2023/03/23 12:36:27;;;;;;;;;;;;;;;15.50;54.75;97417.09;5088715;28;19943;-57
2023/03/23 12:42:58;;;;;;;;;;;;;;;;;;;;;
2023/03/23 12:50:28;;;;;;;;;;;;;;;15.19;54.92;97430.44;4851618;29;20628;-56
2023/03/23 12:53:23;;;;;;;;;;;;;;;15.29;54.62;97422.88;4880292;29;19927;-57
2023/03/23 12:55:54;;;;;;;;;;;;;;;15.32;54.75;97431.16;4918020;29;19985;-58
2023/03/23 12:58:47;;;;;;;;;;;;;;;15.44;54.64;97428.31;4920638;29;19926;-57
2023/03/23 13:02:17;;;;;;;;;;;;;;;15.34;54.44;97431.59;4909693;29;19961;-58
2023/03/23 13:04:45;;;;;;;;;;;;;;;15.36;54.49;97431.25;4910700;29;19943;-59
2023/03/23 13:07:15;;;;;;;;;;;;;;;15.45;54.69;97435.38;4913676;29;19930;-57
2023/03/23 13:09:48;;;;;;;;;;;;;;;15.53;54.36;97435.56;4909715;29;20029;-57
2023/03/23 13:12:16;;;;;;;;;;;;;;;15.57;53.80;97430.97;4925059;29;19945;-57
2023/03/23 13:14:45;;;;;;;;;;;;;;;15.46;53.65;97438.91;4902954;29;19949;-57
2023/03/23 13:17:16;;;;;;;;;;;;;;;15.46;53.13;97436.19;4883035;29;19960;-56
2023/03/23 13:19:53;;;;;;;;;;;;;;;15.38;53.33;97423.47;4897508;29;19934;-57
2023/03/23 13:22:22;;;;;;;;;;;;;;;15.39;53.64;97428.59;4913159;28;19983;-60